Terminal Aerodrome Forecast
Issued by NWS Sterling, VA

Home | Current Version | Previous Version | Text Only | Print | Product List | Glossary On
Versions: 1 2 3 4 5 6 7 8 9 10 11 12 13 14 15 16 17 18 19 20 21 22 23
363
FTUS41 KLWX 120845 AAA
TAFIAD
TAF AMD
KIAD 120845Z 1209/1312 00000KT P6SM FEW140 SCT250
     FM121500 19005KT P6SM BKN100
     FM130300 26005KT P6SM BKN035
     FM130600 30011G23KT P6SM BKN040
     FM131000 31015G30KT P6SM BKN040=

USA.gov is the U.S. government's official web portal to all federal, state and local government web resources and services.